sensor_id;sensor_type;location;lat;lon;timestamp;temperature;humidity
1415;DHT22;702;49.466;11.086;2023-05-31T00:00:15;13.70;43.00
1415;DHT22;702;49.466;11.086;2023-05-31T00:02:43;13.70;43.00
1415;DHT22;702;49.466;11.086;2023-05-31T00:05:10;13.80;43.00
1415;DHT22;702;49.466;11.086;2023-05-31T00:07:37;13.80;42.90
1415;DHT22;702;49.466;11.086;2023-05-31T00:10:06;13.80;42.90
1415;DHT22;702;49.466;11.086;2023-05-31T00:12:33;13.80;42.90
1415;DHT22;702;49.466;11.086;2023-05-31T00:15:01;13.70;42.80
1415;DHT22;702;49.466;11.086;2023-05-31T00:17:30;13.80;42.90
1415;DHT22;702;49.466;11.086;2023-05-31T00:19:57;13.70;42.90
1415;DHT22;702;49.466;11.086;2023-05-31T00:22:24;13.60;43.10
1415;DHT22;702;49.466;11.086;2023-05-31T00:24:52;13.50;43.10
1415;DHT22;702;49.466;11.086;2023-05-31T00:27:20;13.50;43.10
1415;DHT22;702;49.466;11.086;2023-05-31T00:29:47;13.50;43.50
1415;DHT22;702;49.466;11.086;2023-05-31T00:32:15;13.40;43.20
1415;DHT22;702;49.466;11.086;2023-05-31T00:34:43;13.40;43.20
1415;DHT22;702;49.466;11.086;2023-05-31T00:37:10;13.30;43.30
1415;DHT22;702;49.466;11.086;2023-05-31T00:39:38;13.40;43.30
1415;DHT22;702;49.466;11.086;2023-05-31T00:42:06;13.40;43.30
1415;DHT22;702;49.466;11.086;2023-05-31T00:44:35;13.40;43.30
1415;DHT22;702;49.466;11.086;2023-05-31T00:47:03;13.40;43.30
1415;DHT22;702;49.466;11.086;2023-05-31T00:49:31;13.40;43.40
1415;DHT22;702;49.466;11.086;2023-05-31T00:52:00;13.40;43.30
1415;DHT22;702;49.466;11.086;2023-05-31T00:54:28;13.30;43.40
1415;DHT22;702;49.466;11.086;2023-05-31T00:56:56;13.40;43.30
1415;DHT22;702;49.466;11.086;2023-05-31T00:59:24;13.40;43.70
1415;DHT22;702;49.466;11.086;2023-05-31T01:01:51;13.40;43.30
1415;DHT22;702;49.466;11.086;2023-05-31T01:04:21;13.30;43.30
1415;DHT22;702;49.466;11.086;2023-05-31T01:06:49;13.30;43.40
1415;DHT22;702;49.466;11.086;2023-05-31T01:09:18;13.20;43.50
1415;DHT22;702;49.466;11.086;2023-05-31T01:11:53;13.20;43.60
1415;DHT22;702;49.466;11.086;2023-05-31T01:14:31;13.10;43.60
1415;DHT22;702;49.466;11.086;2023-05-31T01:17:13;13.10;43.70
1415;DHT22;702;49.466;11.086;2023-05-31T01:19:50;13.10;43.80
1415;DHT22;702;49.466;11.086;2023-05-31T01:22:25;13.00;43.80
1415;DHT22;702;49.466;11.086;2023-05-31T01:25:14;13.00;44.00
1415;DHT22;702;49.466;11.086;2023-05-31T01:27:52;12.90;43.90
1415;DHT22;702;49.466;11.086;2023-05-31T01:30:21;12.80;43.90
1415;DHT22;702;49.466;11.086;2023-05-31T01:32:49;12.70;44.30
1415;DHT22;702;49.466;11.086;2023-05-31T01:35:18;12.70;44.10
1415;DHT22;702;49.466;11.086;2023-05-31T01:37:45;12.60;44.20
1415;DHT22;702;49.466;11.086;2023-05-31T01:40:13;12.50;44.30
1415;DHT22;702;49.466;11.086;2023-05-31T01:42:42;12.50;44.40
1415;DHT22;702;49.466;11.086;2023-05-31T01:45:12;12.50;44.40
1415;DHT22;702;49.466;11.086;2023-05-31T01:47:43;12.50;44.40
1415;DHT22;702;49.466;11.086;2023-05-31T01:50:13;12.40;44.50
1415;DHT22;702;49.466;11.086;2023-05-31T01:52:40;12.40;44.60
1415;DHT22;702;49.466;11.086;2023-05-31T01:55:08;12.40;44.80
1415;DHT22;702;49.466;11.086;2023-05-31T01:57:38;12.20;45.20
1415;DHT22;702;49.466;11.086;2023-05-31T02:00:07;12.10;44.90
1415;DHT22;702;49.466;11.086;2023-05-31T02:02:40;12.00;45.20
1415;DHT22;702;49.466;11.086;2023-05-31T02:05:09;12.00;45.30
1415;DHT22;702;49.466;11.086;2023-05-31T02:07:38;12.00;45.40
1415;DHT22;702;49.466;11.086;2023-05-31T02:10:07;12.00;45.40
1415;DHT22;702;49.466;11.086;2023-05-31T02:12:35;12.00;45.40
1415;DHT22;702;49.466;11.086;2023-05-31T02:15:03;12.00;45.40
1415;DHT22;702;49.466;11.086;2023-05-31T02:17:38;12.00;45.40
1415;DHT22;702;49.466;11.086;2023-05-31T02:20:09;11.80;45.60
1415;DHT22;702;49.466;11.086;2023-05-31T02:22:38;11.80;45.70
1415;DHT22;702;49.466;11.086;2023-05-31T02:25:08;11.80;45.80
1415;DHT22;702;49.466;11.086;2023-05-31T02:27:36;11.80;46.00
1415;DHT22;702;49.466;11.086;2023-05-31T02:30:04;11.60;46.00
1415;DHT22;702;49.466;11.086;2023-05-31T02:32:33;11.50;46.60
1415;DHT22;702;49.466;11.086;2023-05-31T02:35:04;11.50;46.40
1415;DHT22;702;49.466;11.086;2023-05-31T02:37:32;11.60;46.40
1415;DHT22;702;49.466;11.086;2023-05-31T02:40:00;11.60;46.50
1415;DHT22;702;49.466;11.086;2023-05-31T02:42:31;11.60;46.40
1415;DHT22;702;49.466;11.086;2023-05-31T02:44:59;11.60;46.50
1415;DHT22;702;49.466;11.086;2023-05-31T02:47:26;11.60;46.50
1415;DHT22;702;49.466;11.086;2023-05-31T02:49:53;11.60;46.80
1415;DHT22;702;49.466;11.086;2023-05-31T02:52:22;11.50;46.60
1415;DHT22;702;49.466;11.086;2023-05-31T02:54:50;11.50;46.70
1415;DHT22;702;49.466;11.086;2023-05-31T02:57:17;11.50;46.80
1415;DHT22;702;49.466;11.086;2023-05-31T02:59:45;11.40;46.80
1415;DHT22;702;49.466;11.086;2023-05-31T03:02:12;11.60;46.90
1415;DHT22;702;49.466;11.086;2023-05-31T03:04:40;11.60;46.80
1415;DHT22;702;49.466;11.086;2023-05-31T03:07:08;11.50;46.80
1415;DHT22;702;49.466;11.086;2023-05-31T03:09:37;11.50;46.90
1415;DHT22;702;49.466;11.086;2023-05-31T03:12:05;11.60;46.80
1415;DHT22;702;49.466;11.086;2023-05-31T03:14:32;11.70;46.70
1415;DHT22;702;49.466;11.086;2023-05-31T03:17:00;11.80;46.70
1415;DHT22;702;49.466;11.086;2023-05-31T03:19:28;11.80;46.60
1415;DHT22;702;49.466;11.086;2023-05-31T03:21:56;11.90;46.50
1415;DHT22;702;49.466;11.086;2023-05-31T03:24:23;11.90;46.50
1415;DHT22;702;49.466;11.086;2023-05-31T03:26:51;11.90;46.40
1415;DHT22;702;49.466;11.086;2023-05-31T03:29:20;12.00;46.50
1415;DHT22;702;49.466;11.086;2023-05-31T03:31:47;12.00;46.40
1415;DHT22;702;49.466;11.086;2023-05-31T03:34:15;12.00;46.50
1415;DHT22;702;49.466;11.086;2023-05-31T03:36:42;12.00;46.50
1415;DHT22;702;49.466;11.086;2023-05-31T03:39:09;12.00;46.40
1415;DHT22;702;49.466;11.086;2023-05-31T03:41:37;12.00;46.50
1415;DHT22;702;49.466;11.086;2023-05-31T03:44:05;12.00;46.60
1415;DHT22;702;49.466;11.086;2023-05-31T03:46:32;12.00;46.50
1415;DHT22;702;49.466;11.086;2023-05-31T03:49:00;12.10;46.60
1415;DHT22;702;49.466;11.086;2023-05-31T03:51:28;12.10;46.50
1415;DHT22;702;49.466;11.086;2023-05-31T03:53:56;12.00;46.70
1415;DHT22;702;49.466;11.086;2023-05-31T03:56:23;12.10;46.80
1415;DHT22;702;49.466;11.086;2023-05-31T03:58:50;12.00;47.10
1415;DHT22;702;49.466;11.086;2023-05-31T04:01:20;12.00;47.00
1415;DHT22;702;49.466;11.086;2023-05-31T04:03:47;12.10;47.00
1415;DHT22;702;49.466;11.086;2023-05-31T04:06:15;12.30;47.00
1415;DHT22;702;49.466;11.086;2023-05-31T04:08:42;12.80;46.40
1415;DHT22;702;49.466;11.086;2023-05-31T04:11:09;13.40;46.10
1415;DHT22;702;49.466;11.086;2023-05-31T04:13:36;14.30;45.30
1415;DHT22;702;49.466;11.086;2023-05-31T04:16:04;15.20;44.80
1415;DHT22;702;49.466;11.086;2023-05-31T04:18:33;16.10;43.80
1415;DHT22;702;49.466;11.086;2023-05-31T04:21:01;16.40;43.30
1415;DHT22;702;49.466;11.086;2023-05-31T04:23:28;17.00;42.70
1415;DHT22;702;49.466;11.086;2023-05-31T04:25:55;17.20;42.50
1415;DHT22;702;49.466;11.086;2023-05-31T04:28:23;17.00;42.30
1415;DHT22;702;49.466;11.086;2023-05-31T04:30:50;16.90;42.30
1415;DHT22;702;49.466;11.086;2023-05-31T04:33:17;17.30;42.40
1415;DHT22;702;49.466;11.086;2023-05-31T04:35:46;17.70;42.50
1415;DHT22;702;49.466;11.086;2023-05-31T04:38:14;18.20;41.90
1415;DHT22;702;49.466;11.086;2023-05-31T04:40:42;18.40;41.90
1415;DHT22;702;49.466;11.086;2023-05-31T04:43:09;18.60;41.60
1415;DHT22;702;49.466;11.086;2023-05-31T04:45:37;18.80;41.50
1415;DHT22;702;49.466;11.086;2023-05-31T04:48:04;18.60;41.30
1415;DHT22;702;49.466;11.086;2023-05-31T04:50:31;18.40;41.40
1415;DHT22;702;49.466;11.086;2023-05-31T04:53:00;18.50;41.20
1415;DHT22;702;49.466;11.086;2023-05-31T04:55:28;18.60;41.20
1415;DHT22;702;49.466;11.086;2023-05-31T04:57:55;18.60;41.40
1415;DHT22;702;49.466;11.086;2023-05-31T05:00:24;18.80;41.70
1415;DHT22;702;49.466;11.086;2023-05-31T05:02:52;18.40;41.30
1415;DHT22;702;49.466;11.086;2023-05-31T05:05:19;18.20;41.20
1415;DHT22;702;49.466;11.086;2023-05-31T05:07:50;18.30;41.40
1415;DHT22;702;49.466;11.086;2023-05-31T05:10:19;18.10;41.50
1415;DHT22;702;49.466;11.086;2023-05-31T05:12:46;18.00;41.50
1415;DHT22;702;49.466;11.086;2023-05-31T05:15:13;18.30;41.40
1415;DHT22;702;49.466;11.086;2023-05-31T05:17:41;18.30;41.40
1415;DHT22;702;49.466;11.086;2023-05-31T05:20:10;18.70;41.40
1415;DHT22;702;49.466;11.086;2023-05-31T05:22:38;19.00;41.10
1415;DHT22;702;49.466;11.086;2023-05-31T05:25:06;18.70;41.20
1415;DHT22;702;49.466;11.086;2023-05-31T05:27:35;19.00;41.30
1415;DHT22;702;49.466;11.086;2023-05-31T05:30:06;18.50;41.20
1415;DHT22;702;49.466;11.086;2023-05-31T05:32:38;18.80;41.30
1415;DHT22;702;49.466;11.086;2023-05-31T05:35:06;18.80;41.10
1415;DHT22;702;49.466;11.086;2023-05-31T05:37:34;18.70;41.20
1415;DHT22;702;49.466;11.086;2023-05-31T05:40:01;18.30;41.20
1415;DHT22;702;49.466;11.086;2023-05-31T05:42:32;18.30;41.70
1415;DHT22;702;49.466;11.086;2023-05-31T05:45:05;18.30;41.50
1415;DHT22;702;49.466;11.086;2023-05-31T05:47:33;18.30;41.70
1415;DHT22;702;49.466;11.086;2023-05-31T05:50:01;18.80;41.80
1415;DHT22;702;49.466;11.086;2023-05-31T05:52:29;19.80;41.70
1415;DHT22;702;49.466;11.086;2023-05-31T05:54:56;20.10;40.70
1415;DHT22;702;49.466;11.086;2023-05-31T05:57:23;19.80;40.70
1415;DHT22;702;49.466;11.086;2023-05-31T05:59:51;19.40;41.10
1415;DHT22;702;49.466;11.086;2023-05-31T06:02:20;19.50;40.80
1415;DHT22;702;49.466;11.086;2023-05-31T06:04:47;19.10;40.80
1415;DHT22;702;49.466;11.086;2023-05-31T06:07:17;19.30;41.10
1415;DHT22;702;49.466;11.086;2023-05-31T06:09:45;18.90;41.00
1415;DHT22;702;49.466;11.086;2023-05-31T06:12:13;18.80;41.10
1415;DHT22;702;49.466;11.086;2023-05-31T06:14:40;18.60;41.30
1415;DHT22;702;49.466;11.086;2023-05-31T06:17:08;18.80;41.30
1415;DHT22;702;49.466;11.086;2023-05-31T06:19:36;19.00;41.40
1415;DHT22;702;49.466;11.086;2023-05-31T06:22:04;19.50;41.10
1415;DHT22;702;49.466;11.086;2023-05-31T06:24:32;19.10;41.20
1415;DHT22;702;49.466;11.086;2023-05-31T06:26:59;18.60;41.70
1415;DHT22;702;49.466;11.086;2023-05-31T06:29:28;18.10;41.90
1415;DHT22;702;49.466;11.086;2023-05-31T06:31:55;17.20;42.30
1415;DHT22;702;49.466;11.086;2023-05-31T06:34:22;16.90;42.50
1415;DHT22;702;49.466;11.086;2023-05-31T06:36:51;16.80;42.90
1415;DHT22;702;49.466;11.086;2023-05-31T06:39:18;16.90;43.00
1415;DHT22;702;49.466;11.086;2023-05-31T06:41:45;16.90;42.80
1415;DHT22;702;49.466;11.086;2023-05-31T06:44:12;16.90;42.70
1415;DHT22;702;49.466;11.086;2023-05-31T06:46:40;16.90;42.80
1415;DHT22;702;49.466;11.086;2023-05-31T06:49:07;17.00;42.90
1415;DHT22;702;49.466;11.086;2023-05-31T06:51:34;17.20;43.10
1415;DHT22;702;49.466;11.086;2023-05-31T06:54:03;17.10;42.70
1415;DHT22;702;49.466;11.086;2023-05-31T06:56:31;17.00;42.80
1415;DHT22;702;49.466;11.086;2023-05-31T06:58:58;17.10;42.90
1415;DHT22;702;49.466;11.086;2023-05-31T07:01:25;17.30;42.80
1415;DHT22;702;49.466;11.086;2023-05-31T07:03:54;17.30;42.60
1415;DHT22;702;49.466;11.086;2023-05-31T07:06:22;17.40;42.70
1415;DHT22;702;49.466;11.086;2023-05-31T07:08:50;17.50;42.80
1415;DHT22;702;49.466;11.086;2023-05-31T07:11:19;17.60;42.30
1415;DHT22;702;49.466;11.086;2023-05-31T07:13:47;17.70;42.50
1415;DHT22;702;49.466;11.086;2023-05-31T07:16:15;18.00;42.60
1415;DHT22;702;49.466;11.086;2023-05-31T07:18:42;18.00;41.90
1415;DHT22;702;49.466;11.086;2023-05-31T07:21:11;18.10;42.20
1415;DHT22;702;49.466;11.086;2023-05-31T07:23:38;18.30;42.10
1415;DHT22;702;49.466;11.086;2023-05-31T07:26:06;18.40;41.80
1415;DHT22;702;49.466;11.086;2023-05-31T07:28:34;18.30;41.80
1415;DHT22;702;49.466;11.086;2023-05-31T07:31:02;18.30;41.40
1415;DHT22;702;49.466;11.086;2023-05-31T07:33:30;18.20;41.60
1415;DHT22;702;49.466;11.086;2023-05-31T07:35:58;18.40;41.50
1415;DHT22;702;49.466;11.086;2023-05-31T07:38:27;18.30;41.10
1415;DHT22;702;49.466;11.086;2023-05-31T07:40:54;18.40;41.40
1415;DHT22;702;49.466;11.086;2023-05-31T07:43:22;18.40;40.90
1415;DHT22;702;49.466;11.086;2023-05-31T07:45:52;18.50;41.30
1415;DHT22;702;49.466;11.086;2023-05-31T07:48:20;18.70;41.50
1415;DHT22;702;49.466;11.086;2023-05-31T07:50:47;18.90;41.10
1415;DHT22;702;49.466;11.086;2023-05-31T07:53:14;19.00;40.60
1415;DHT22;702;49.466;11.086;2023-05-31T07:55:44;18.90;40.40
1415;DHT22;702;49.466;11.086;2023-05-31T07:58:12;18.90;40.30
1415;DHT22;702;49.466;11.086;2023-05-31T08:00:39;19.00;40.20
1415;DHT22;702;49.466;11.086;2023-05-31T08:03:08;18.80;40.30
1415;DHT22;702;49.466;11.086;2023-05-31T08:05:35;18.80;40.20
1415;DHT22;702;49.466;11.086;2023-05-31T08:08:02;18.90;40.40
1415;DHT22;702;49.466;11.086;2023-05-31T08:10:31;19.00;40.10
1415;DHT22;702;49.466;11.086;2023-05-31T08:12:58;19.10;40.20
1415;DHT22;702;49.466;11.086;2023-05-31T08:15:25;19.10;39.70
1415;DHT22;702;49.466;11.086;2023-05-31T08:17:52;19.20;40.00
1415;DHT22;702;49.466;11.086;2023-05-31T08:20:22;19.20;39.80
1415;DHT22;702;49.466;11.086;2023-05-31T08:22:49;19.20;39.90
1415;DHT22;702;49.466;11.086;2023-05-31T08:25:19;19.30;39.70
1415;DHT22;702;49.466;11.086;2023-05-31T08:27:48;19.40;40.20
1415;DHT22;702;49.466;11.086;2023-05-31T08:30:16;19.40;39.30
1415;DHT22;702;49.466;11.086;2023-05-31T08:32:43;19.50;39.80
1415;DHT22;702;49.466;11.086;2023-05-31T08:35:10;19.60;39.60
1415;DHT22;702;49.466;11.086;2023-05-31T08:37:39;19.70;39.80
1415;DHT22;702;49.466;11.086;2023-05-31T08:40:07;19.80;39.80
1415;DHT22;702;49.466;11.086;2023-05-31T08:42:39;20.00;39.80
1415;DHT22;702;49.466;11.086;2023-05-31T08:45:19;19.80;39.20
1415;DHT22;702;49.466;11.086;2023-05-31T08:47:53;19.90;39.20
1415;DHT22;702;49.466;11.086;2023-05-31T08:50:26;20.00;39.30
1415;DHT22;702;49.466;11.086;2023-05-31T08:52:56;20.10;39.30
1415;DHT22;702;49.466;11.086;2023-05-31T08:55:24;20.40;38.90
1415;DHT22;702;49.466;11.086;2023-05-31T08:57:51;20.40;38.30
1415;DHT22;702;49.466;11.086;2023-05-31T09:00:20;20.30;38.10
1415;DHT22;702;49.466;11.086;2023-05-31T09:02:48;20.30;38.20
1415;DHT22;702;49.466;11.086;2023-05-31T09:05:17;20.00;38.00
1415;DHT22;702;49.466;11.086;2023-05-31T09:07:45;20.20;37.70
1415;DHT22;702;49.466;11.086;2023-05-31T09:10:17;20.30;38.00
1415;DHT22;702;49.466;11.086;2023-05-31T09:12:45;20.40;38.10
1415;DHT22;702;49.466;11.086;2023-05-31T09:15:13;20.40;38.20
1415;DHT22;702;49.466;11.086;2023-05-31T09:17:45;20.40;38.70
1415;DHT22;702;49.466;11.086;2023-05-31T09:20:12;20.60;38.20
1415;DHT22;702;49.466;11.086;2023-05-31T09:22:40;20.60;38.70
1415;DHT22;702;49.466;11.086;2023-05-31T09:25:08;20.70;39.00
1415;DHT22;702;49.466;11.086;2023-05-31T09:27:38;20.80;39.10
1415;DHT22;702;49.466;11.086;2023-05-31T09:30:08;20.90;39.20
1415;DHT22;702;49.466;11.086;2023-05-31T09:32:53;20.90;38.50
1415;DHT22;702;49.466;11.086;2023-05-31T09:35:21;20.80;38.40
1415;DHT22;702;49.466;11.086;2023-05-31T09:37:53;20.80;38.50
1415;DHT22;702;49.466;11.086;2023-05-31T09:40:22;20.80;38.40
1415;DHT22;702;49.466;11.086;2023-05-31T09:42:51;20.80;38.60
1415;DHT22;702;49.466;11.086;2023-05-31T09:45:19;20.90;38.80
1415;DHT22;702;49.466;11.086;2023-05-31T09:47:48;20.90;38.60
1415;DHT22;702;49.466;11.086;2023-05-31T09:50:18;21.00;38.80
1415;DHT22;702;49.466;11.086;2023-05-31T09:52:48;21.20;38.50
1415;DHT22;702;49.466;11.086;2023-05-31T09:55:17;21.20;38.40
1415;DHT22;702;49.466;11.086;2023-05-31T09:57:45;21.30;38.40
1415;DHT22;702;49.466;11.086;2023-05-31T10:00:13;21.30;38.30
1415;DHT22;702;49.466;11.086;2023-05-31T10:02:44;21.30;37.90
1415;DHT22;702;49.466;11.086;2023-05-31T10:05:13;21.40;37.70
1415;DHT22;702;49.466;11.086;2023-05-31T10:07:44;21.50;38.10
1415;DHT22;702;49.466;11.086;2023-05-31T10:10:14;21.40;38.20
1415;DHT22;702;49.466;11.086;2023-05-31T10:12:49;21.60;38.80
1415;DHT22;702;49.466;11.086;2023-05-31T10:15:19;21.80;38.60
1415;DHT22;702;49.466;11.086;2023-05-31T10:17:54;21.70;38.00
1415;DHT22;702;49.466;11.086;2023-05-31T10:20:29;21.50;38.10
1415;DHT22;702;49.466;11.086;2023-05-31T10:23:05;21.60;38.00
1415;DHT22;702;49.466;11.086;2023-05-31T10:25:41;21.60;38.30
1415;DHT22;702;49.466;11.086;2023-05-31T10:28:14;21.70;38.10
1415;DHT22;702;49.466;11.086;2023-05-31T10:30:46;21.80;38.00
1415;DHT22;702;49.466;11.086;2023-05-31T10:33:16;21.90;38.20
1415;DHT22;702;49.466;11.086;2023-05-31T10:35:44;21.90;37.20
1415;DHT22;702;49.466;11.086;2023-05-31T10:38:14;22.00;37.40
1415;DHT22;702;49.466;11.086;2023-05-31T10:40:47;22.10;37.40
1415;DHT22;702;49.466;11.086;2023-05-31T10:43:20;22.00;37.60
1415;DHT22;702;49.466;11.086;2023-05-31T10:45:52;22.20;37.50
1415;DHT22;702;49.466;11.086;2023-05-31T10:48:27;22.00;37.50
1415;DHT22;702;49.466;11.086;2023-05-31T10:51:00;22.10;38.00
1415;DHT22;702;49.466;11.086;2023-05-31T10:53:30;22.30;37.80
1415;DHT22;702;49.466;11.086;2023-05-31T10:56:02;22.30;37.30
1415;DHT22;702;49.466;11.086;2023-05-31T10:58:31;22.20;37.40
1415;DHT22;702;49.466;11.086;2023-05-31T11:01:04;22.20;38.10
1415;DHT22;702;49.466;11.086;2023-05-31T11:03:33;22.30;37.80
1415;DHT22;702;49.466;11.086;2023-05-31T11:06:02;22.50;38.20
1415;DHT22;702;49.466;11.086;2023-05-31T11:08:32;22.40;37.80
1415;DHT22;702;49.466;11.086;2023-05-31T11:11:25;22.60;37.30
1415;DHT22;702;49.466;11.086;2023-05-31T11:14:00;22.70;36.50
1415;DHT22;702;49.466;11.086;2023-05-31T11:16:32;22.90;36.40
1415;DHT22;702;49.466;11.086;2023-05-31T11:19:05;22.90;35.90
1415;DHT22;702;49.466;11.086;2023-05-31T11:21:46;22.60;35.50
1415;DHT22;702;49.466;11.086;2023-05-31T11:24:31;22.60;35.90
1415;DHT22;702;49.466;11.086;2023-05-31T11:27:01;22.60;35.60
1415;DHT22;702;49.466;11.086;2023-05-31T11:29:56;22.70;35.90
1415;DHT22;702;49.466;11.086;2023-05-31T11:32:55;22.90;35.70
1415;DHT22;702;49.466;11.086;2023-05-31T11:35:25;23.00;36.30
1415;DHT22;702;49.466;11.086;2023-05-31T11:38:00;23.20;36.40
1415;DHT22;702;49.466;11.086;2023-05-31T11:40:30;23.30;35.80
1415;DHT22;702;49.466;11.086;2023-05-31T11:43:03;23.40;36.30
1415;DHT22;702;49.466;11.086;2023-05-31T11:45:32;23.30;36.10
1415;DHT22;702;49.466;11.086;2023-05-31T11:48:11;23.10;35.90
1415;DHT22;702;49.466;11.086;2023-05-31T11:50:55;23.20;36.30
1415;DHT22;702;49.466;11.086;2023-05-31T11:53:27;23.30;36.10
1415;DHT22;702;49.466;11.086;2023-05-31T11:55:55;23.20;36.60
1415;DHT22;702;49.466;11.086;2023-05-31T11:58:26;23.30;37.20
1415;DHT22;702;49.466;11.086;2023-05-31T12:00:57;23.60;37.30
1415;DHT22;702;49.466;11.086;2023-05-31T12:03:25;23.50;37.00
1415;DHT22;702;49.466;11.086;2023-05-31T12:05:57;23.50;36.90
1415;DHT22;702;49.466;11.086;2023-05-31T12:08:26;23.30;37.00
1415;DHT22;702;49.466;11.086;2023-05-31T12:11:01;23.30;37.40
1415;DHT22;702;49.466;11.086;2023-05-31T12:13:29;23.30;37.60
1415;DHT22;702;49.466;11.086;2023-05-31T12:15:57;23.10;36.80
1415;DHT22;702;49.466;11.086;2023-05-31T12:18:25;23.10;37.80
1415;DHT22;702;49.466;11.086;2023-05-31T12:20:53;23.30;37.70
1415;DHT22;702;49.466;11.086;2023-05-31T12:23:20;23.50;38.10
1415;DHT22;702;49.466;11.086;2023-05-31T12:25:50;23.50;38.10
1415;DHT22;702;49.466;11.086;2023-05-31T12:28:20;23.50;37.80
1415;DHT22;702;49.466;11.086;2023-05-31T12:30:48;23.20;37.60
1415;DHT22;702;49.466;11.086;2023-05-31T12:33:17;23.40;37.90
1415;DHT22;702;49.466;11.086;2023-05-31T12:35:45;23.60;37.40
1415;DHT22;702;49.466;11.086;2023-05-31T12:38:13;23.70;36.90
1415;DHT22;702;49.466;11.086;2023-05-31T12:40:41;23.80;36.30
1415;DHT22;702;49.466;11.086;2023-05-31T12:43:11;24.00;36.60
1415;DHT22;702;49.466;11.086;2023-05-31T12:45:41;24.00;36.20
1415;DHT22;702;49.466;11.086;2023-05-31T12:48:09;23.80;36.00
1415;DHT22;702;49.466;11.086;2023-05-31T12:50:44;23.90;35.80
1415;DHT22;702;49.466;11.086;2023-05-31T12:53:12;23.80;35.30
1415;DHT22;702;49.466;11.086;2023-05-31T12:55:40;23.70;34.80
1415;DHT22;702;49.466;11.086;2023-05-31T12:58:08;23.70;35.20
1415;DHT22;702;49.466;11.086;2023-05-31T13:00:35;23.90;35.60
1415;DHT22;702;49.466;11.086;2023-05-31T13:03:06;24.00;35.70
1415;DHT22;702;49.466;11.086;2023-05-31T13:05:38;24.10;35.50
1415;DHT22;702;49.466;11.086;2023-05-31T13:08:06;24.00;35.10
1415;DHT22;702;49.466;11.086;2023-05-31T13:10:34;24.00;35.60
1415;DHT22;702;49.466;11.086;2023-05-31T13:13:03;24.00;35.40
1415;DHT22;702;49.466;11.086;2023-05-31T13:15:31;24.20;35.80
1415;DHT22;702;49.466;11.086;2023-05-31T13:17:58;24.10;34.90
1415;DHT22;702;49.466;11.086;2023-05-31T13:20:27;24.10;34.50
1415;DHT22;702;49.466;11.086;2023-05-31T13:22:55;24.10;34.50
1415;DHT22;702;49.466;11.086;2023-05-31T13:25:22;24.10;34.40
1415;DHT22;702;49.466;11.086;2023-05-31T13:27:50;24.20;34.80
1415;DHT22;702;49.466;11.086;2023-05-31T13:30:17;24.20;34.60
1415;DHT22;702;49.466;11.086;2023-05-31T13:32:44;24.30;34.60
1415;DHT22;702;49.466;11.086;2023-05-31T13:35:12;24.20;34.80
1415;DHT22;702;49.466;11.086;2023-05-31T13:37:41;24.40;35.10
1415;DHT22;702;49.466;11.086;2023-05-31T13:40:08;24.30;35.10
1415;DHT22;702;49.466;11.086;2023-05-31T13:42:36;24.30;34.90
1415;DHT22;702;49.466;11.086;2023-05-31T13:45:05;24.40;35.00
1415;DHT22;702;49.466;11.086;2023-05-31T13:47:33;24.30;34.60
1415;DHT22;702;49.466;11.086;2023-05-31T13:50:00;24.30;34.90
1415;DHT22;702;49.466;11.086;2023-05-31T13:52:28;24.40;35.30
1415;DHT22;702;49.466;11.086;2023-05-31T13:54:58;24.30;34.70
1415;DHT22;702;49.466;11.086;2023-05-31T13:57:26;24.40;35.30
1415;DHT22;702;49.466;11.086;2023-05-31T13:59:53;24.40;35.00
1415;DHT22;702;49.466;11.086;2023-05-31T14:02:22;24.40;35.10
1415;DHT22;702;49.466;11.086;2023-05-31T14:04:50;24.50;35.10
1415;DHT22;702;49.466;11.086;2023-05-31T14:07:17;24.40;34.60
1415;DHT22;702;49.466;11.086;2023-05-31T14:09:44;24.60;34.80
1415;DHT22;702;49.466;11.086;2023-05-31T14:12:13;24.90;34.80
1415;DHT22;702;49.466;11.086;2023-05-31T14:14:41;24.80;34.90
1415;DHT22;702;49.466;11.086;2023-05-31T14:17:09;24.80;34.80
1415;DHT22;702;49.466;11.086;2023-05-31T14:19:36;24.90;34.70
1415;DHT22;702;49.466;11.086;2023-05-31T14:22:04;24.80;34.70
1415;DHT22;702;49.466;11.086;2023-05-31T14:24:31;24.80;34.80
1415;DHT22;702;49.466;11.086;2023-05-31T14:26:59;24.60;34.40
1415;DHT22;702;49.466;11.086;2023-05-31T14:29:28;24.60;34.70
1415;DHT22;702;49.466;11.086;2023-05-31T14:31:55;24.70;35.00
1415;DHT22;702;49.466;11.086;2023-05-31T14:34:23;24.90;34.60
1415;DHT22;702;49.466;11.086;2023-05-31T14:36:51;25.00;34.10
1415;DHT22;702;49.466;11.086;2023-05-31T14:39:18;25.10;34.10
1415;DHT22;702;49.466;11.086;2023-05-31T14:41:46;24.90;33.90
1415;DHT22;702;49.466;11.086;2023-05-31T14:44:13;24.70;34.10
1415;DHT22;702;49.466;11.086;2023-05-31T14:46:42;24.60;34.20
1415;DHT22;702;49.466;11.086;2023-05-31T14:49:09;24.80;34.80
1415;DHT22;702;49.466;11.086;2023-05-31T14:51:36;24.80;34.90
1415;DHT22;702;49.466;11.086;2023-05-31T14:54:04;24.90;34.70
1415;DHT22;702;49.466;11.086;2023-05-31T14:56:31;24.90;34.60
1415;DHT22;702;49.466;11.086;2023-05-31T14:58:58;24.90;34.90
1415;DHT22;702;49.466;11.086;2023-05-31T15:01:26;24.90;34.90
1415;DHT22;702;49.466;11.086;2023-05-31T15:03:55;25.00;34.80
1415;DHT22;702;49.466;11.086;2023-05-31T15:06:22;25.00;34.90
1415;DHT22;702;49.466;11.086;2023-05-31T15:08:50;25.00;35.00
1415;DHT22;702;49.466;11.086;2023-05-31T15:11:17;25.00;35.30
1415;DHT22;702;49.466;11.086;2023-05-31T15:13:45;24.90;34.90
1415;DHT22;702;49.466;11.086;2023-05-31T15:16:12;24.80;35.00
1415;DHT22;702;49.466;11.086;2023-05-31T15:18:39;24.80;35.10
1415;DHT22;702;49.466;11.086;2023-05-31T15:21:08;24.90;34.80
1415;DHT22;702;49.466;11.086;2023-05-31T15:23:35;25.00;34.60
1415;DHT22;702;49.466;11.086;2023-05-31T15:26:03;25.00;33.60
1415;DHT22;702;49.466;11.086;2023-05-31T15:28:30;25.00;33.70
1415;DHT22;702;49.466;11.086;2023-05-31T15:30:58;24.90;34.40
1415;DHT22;702;49.466;11.086;2023-05-31T15:33:27;25.00;35.00
1415;DHT22;702;49.466;11.086;2023-05-31T15:35:55;25.00;34.70
1415;DHT22;702;49.466;11.086;2023-05-31T15:38:23;25.20;34.40
1415;DHT22;702;49.466;11.086;2023-05-31T15:40:51;25.20;34.00
1415;DHT22;702;49.466;11.086;2023-05-31T15:43:21;25.10;34.00
1415;DHT22;702;49.466;11.086;2023-05-31T15:45:49;25.20;34.10
1415;DHT22;702;49.466;11.086;2023-05-31T15:48:17;25.30;34.30
1415;DHT22;702;49.466;11.086;2023-05-31T15:50:45;25.30;34.60
1415;DHT22;702;49.466;11.086;2023-05-31T15:53:12;25.40;34.60
1415;DHT22;702;49.466;11.086;2023-05-31T15:55:42;25.30;34.60
1415;DHT22;702;49.466;11.086;2023-05-31T15:58:13;25.70;34.30
1415;DHT22;702;49.466;11.086;2023-05-31T16:00:40;26.40;34.10
1415;DHT22;702;49.466;11.086;2023-05-31T16:03:07;27.00;33.50
1415;DHT22;702;49.466;11.086;2023-05-31T16:05:35;27.10;33.00
1415;DHT22;702;49.466;11.086;2023-05-31T16:08:04;27.60;33.10
1415;DHT22;702;49.466;11.086;2023-05-31T16:10:31;28.00;33.30
1415;DHT22;702;49.466;11.086;2023-05-31T16:13:00;28.10;33.10